sensor_id;sensor_type;location;lat;lon;timestamp;P1;durP1;ratioP1;P2;durP2;ratioP2
76320;SDS011;65132;52.088;5.402;2023-10-09T00:01:44;50.30;;;18.35;;
76320;SDS011;65132;52.088;5.402;2023-10-09T00:04:11;43.63;;;16.98;;
76320;SDS011;65132;52.088;5.402;2023-10-09T00:06:38;43.15;;;17.85;;
76320;SDS011;65132;52.088;5.402;2023-10-09T00:09:06;38.58;;;15.82;;
76320;SDS011;65132;52.088;5.402;2023-10-09T00:11:38;46.75;;;17.60;;
76320;SDS011;65132;52.088;5.402;2023-10-09T00:14:07;41.65;;;16.50;;
76320;SDS011;65132;52.088;5.402;2023-10-09T00:16:41;35.17;;;14.73;;
76320;SDS011;65132;52.088;5.402;2023-10-09T00:19:08;42.72;;;16.83;;
76320;SDS011;65132;52.088;5.402;2023-10-09T00:21:41;39.00;;;15.93;;
76320;SDS011;65132;52.088;5.402;2023-10-09T00:24:08;44.38;;;16.30;;
76320;SDS011;65132;52.088;5.402;2023-10-09T00:26:37;36.58;;;15.07;;
76320;SDS011;65132;52.088;5.402;2023-10-09T00:29:04;38.97;;;15.82;;
76320;SDS011;65132;52.088;5.402;2023-10-09T00:31:30;40.90;;;16.35;;
76320;SDS011;65132;52.088;5.402;2023-10-09T00:33:59;38.80;;;15.57;;
76320;SDS011;65132;52.088;5.402;2023-10-09T00:36:26;40.30;;;14.88;;
76320;SDS011;65132;52.088;5.402;2023-10-09T00:38:53;36.75;;;14.77;;
76320;SDS011;65132;52.088;5.402;2023-10-09T00:41:22;33.30;;;14.73;;
76320;SDS011;65132;52.088;5.402;2023-10-09T00:43:48;31.60;;;13.88;;
76320;SDS011;65132;52.088;5.402;2023-10-09T00:46:16;34.35;;;13.52;;
76320;SDS011;65132;52.088;5.402;2023-10-09T00:48:57;36.33;;;15.60;;
76320;SDS011;65132;52.088;5.402;2023-10-09T00:51:27;39.55;;;15.52;;
76320;SDS011;65132;52.088;5.402;2023-10-09T00:53:54;46.10;;;16.52;;
76320;SDS011;65132;52.088;5.402;2023-10-09T00:56:23;34.35;;;15.48;;
76320;SDS011;65132;52.088;5.402;2023-10-09T00:58:50;42.03;;;16.75;;
76320;SDS011;65132;52.088;5.402;2023-10-09T01:01:20;37.72;;;16.35;;
76320;SDS011;65132;52.088;5.402;2023-10-09T01:03:46;41.08;;;15.90;;
76320;SDS011;65132;52.088;5.402;2023-10-09T01:06:13;41.33;;;16.23;;
76320;SDS011;65132;52.088;5.402;2023-10-09T01:08:45;43.78;;;16.58;;
76320;SDS011;65132;52.088;5.402;2023-10-09T01:11:24;37.95;;;15.35;;
76320;SDS011;65132;52.088;5.402;2023-10-09T01:13:50;40.63;;;16.45;;
76320;SDS011;65132;52.088;5.402;2023-10-09T01:16:24;40.13;;;17.73;;
76320;SDS011;65132;52.088;5.402;2023-10-09T01:18:59;37.67;;;16.20;;
76320;SDS011;65132;52.088;5.402;2023-10-09T01:21:34;33.22;;;15.05;;
76320;SDS011;65132;52.088;5.402;2023-10-09T01:24:03;35.88;;;15.43;;
76320;SDS011;65132;52.088;5.402;2023-10-09T01:29:20;38.63;;;15.70;;
76320;SDS011;65132;52.088;5.402;2023-10-09T01:31:51;34.40;;;15.27;;
76320;SDS011;65132;52.088;5.402;2023-10-09T01:37:12;39.10;;;15.50;;
76320;SDS011;65132;52.088;5.402;2023-10-09T01:39:40;36.90;;;15.52;;
76320;SDS011;65132;52.088;5.402;2023-10-09T01:42:10;35.50;;;15.02;;
76320;SDS011;65132;52.088;5.402;2023-10-09T01:44:39;31.88;;;14.82;;
76320;SDS011;65132;52.088;5.402;2023-10-09T01:47:07;39.38;;;16.83;;
76320;SDS011;65132;52.088;5.402;2023-10-09T01:49:39;32.28;;;14.30;;
76320;SDS011;65132;52.088;5.402;2023-10-09T01:52:07;44.80;;;16.85;;
76320;SDS011;65132;52.088;5.402;2023-10-09T01:54:40;39.67;;;15.90;;
76320;SDS011;65132;52.088;5.402;2023-10-09T01:59:37;35.38;;;15.93;;
76320;SDS011;65132;52.088;5.402;2023-10-09T02:02:06;31.88;;;14.48;;
76320;SDS011;65132;52.088;5.402;2023-10-09T02:04:33;33.30;;;14.73;;
76320;SDS011;65132;52.088;5.402;2023-10-09T02:07:02;30.45;;;14.48;;
76320;SDS011;65132;52.088;5.402;2023-10-09T02:09:38;32.95;;;15.70;;
76320;SDS011;65132;52.088;5.402;2023-10-09T02:12:10;33.08;;;16.02;;
76320;SDS011;65132;52.088;5.402;2023-10-09T02:14:42;35.38;;;15.45;;
76320;SDS011;65132;52.088;5.402;2023-10-09T02:17:09;35.47;;;15.07;;
76320;SDS011;65132;52.088;5.402;2023-10-09T02:19:39;35.45;;;16.05;;
76320;SDS011;65132;52.088;5.402;2023-10-09T02:22:08;29.70;;;14.73;;
76320;SDS011;65132;52.088;5.402;2023-10-09T02:24:39;29.10;;;14.27;;
76320;SDS011;65132;52.088;5.402;2023-10-09T02:27:08;30.45;;;13.57;;
76320;SDS011;65132;52.088;5.402;2023-10-09T02:29:37;32.05;;;15.32;;
76320;SDS011;65132;52.088;5.402;2023-10-09T02:32:06;29.40;;;13.75;;
76320;SDS011;65132;52.088;5.402;2023-10-09T02:34:32;29.23;;;13.98;;
76320;SDS011;65132;52.088;5.402;2023-10-09T02:36:59;33.90;;;14.95;;
76320;SDS011;65132;52.088;5.402;2023-10-09T02:39:25;28.30;;;13.05;;
76320;SDS011;65132;52.088;5.402;2023-10-09T02:41:57;25.13;;;12.38;;
76320;SDS011;65132;52.088;5.402;2023-10-09T02:44:23;31.45;;;14.05;;
76320;SDS011;65132;52.088;5.402;2023-10-09T02:46:50;28.45;;;13.73;;
76320;SDS011;65132;52.088;5.402;2023-10-09T02:49:21;29.20;;;13.63;;
76320;SDS011;65132;52.088;5.402;2023-10-09T02:51:50;31.13;;;12.88;;
76320;SDS011;65132;52.088;5.402;2023-10-09T02:54:23;31.35;;;13.05;;
76320;SDS011;65132;52.088;5.402;2023-10-09T02:56:53;27.40;;;12.68;;
76320;SDS011;65132;52.088;5.402;2023-10-09T02:59:19;29.73;;;12.57;;
76320;SDS011;65132;52.088;5.402;2023-10-09T03:01:46;29.08;;;12.77;;
76320;SDS011;65132;52.088;5.402;2023-10-09T03:04:15;26.08;;;12.52;;
76320;SDS011;65132;52.088;5.402;2023-10-09T03:06:44;29.00;;;13.15;;
76320;SDS011;65132;52.088;5.402;2023-10-09T03:09:11;23.92;;;12.02;;
76320;SDS011;65132;52.088;5.402;2023-10-09T03:11:37;27.85;;;12.30;;
76320;SDS011;65132;52.088;5.402;2023-10-09T03:14:07;27.88;;;12.63;;
76320;SDS011;65132;52.088;5.402;2023-10-09T03:16:33;26.63;;;12.15;;
76320;SDS011;65132;52.088;5.402;2023-10-09T03:19:01;24.75;;;11.63;;
76320;SDS011;65132;52.088;5.402;2023-10-09T03:21:29;25.80;;;12.18;;
76320;SDS011;65132;52.088;5.402;2023-10-09T03:23:55;28.17;;;11.98;;
76320;SDS011;65132;52.088;5.402;2023-10-09T03:26:23;23.10;;;10.75;;
76320;SDS011;65132;52.088;5.402;2023-10-09T03:28:51;22.38;;;11.45;;
76320;SDS011;65132;52.088;5.402;2023-10-09T03:31:20;26.90;;;11.52;;
76320;SDS011;65132;52.088;5.402;2023-10-09T03:33:49;27.42;;;12.68;;
76320;SDS011;65132;52.088;5.402;2023-10-09T03:36:15;21.90;;;11.25;;
76320;SDS011;65132;52.088;5.402;2023-10-09T03:38:44;23.42;;;11.55;;
76320;SDS011;65132;52.088;5.402;2023-10-09T03:41:18;24.85;;;11.15;;
76320;SDS011;65132;52.088;5.402;2023-10-09T03:43:49;23.35;;;9.82;;
76320;SDS011;65132;52.088;5.402;2023-10-09T03:46:20;24.02;;;11.02;;
76320;SDS011;65132;52.088;5.402;2023-10-09T03:48:53;24.50;;;11.18;;
76320;SDS011;65132;52.088;5.402;2023-10-09T03:51:22;22.50;;;10.38;;
76320;SDS011;65132;52.088;5.402;2023-10-09T03:53:52;21.52;;;10.65;;
76320;SDS011;65132;52.088;5.402;2023-10-09T03:56:24;24.17;;;10.85;;
76320;SDS011;65132;52.088;5.402;2023-10-09T03:58:53;24.63;;;11.73;;
76320;SDS011;65132;52.088;5.402;2023-10-09T04:01:20;25.10;;;11.82;;
76320;SDS011;65132;52.088;5.402;2023-10-09T04:03:50;24.35;;;12.18;;
76320;SDS011;65132;52.088;5.402;2023-10-09T04:06:19;22.90;;;10.05;;
76320;SDS011;65132;52.088;5.402;2023-10-09T04:08:48;21.92;;;10.23;;
76320;SDS011;65132;52.088;5.402;2023-10-09T04:11:16;23.58;;;11.45;;
76320;SDS011;65132;52.088;5.402;2023-10-09T04:13:43;22.33;;;11.18;;
76320;SDS011;65132;52.088;5.402;2023-10-09T04:16:10;24.55;;;11.65;;
76320;SDS011;65132;52.088;5.402;2023-10-09T04:18:41;24.48;;;10.45;;
76320;SDS011;65132;52.088;5.402;2023-10-09T04:21:07;23.58;;;10.15;;
76320;SDS011;65132;52.088;5.402;2023-10-09T04:23:34;22.85;;;11.15;;
76320;SDS011;65132;52.088;5.402;2023-10-09T04:26:03;26.33;;;10.85;;
76320;SDS011;65132;52.088;5.402;2023-10-09T04:28:33;22.77;;;10.10;;
76320;SDS011;65132;52.088;5.402;2023-10-09T04:30:59;22.38;;;10.48;;
76320;SDS011;65132;52.088;5.402;2023-10-09T04:33:25;23.08;;;10.73;;
76320;SDS011;65132;52.088;5.402;2023-10-09T04:35:52;24.27;;;10.13;;
76320;SDS011;65132;52.088;5.402;2023-10-09T04:38:23;20.15;;;9.88;;
76320;SDS011;65132;52.088;5.402;2023-10-09T04:40:54;19.92;;;9.77;;
76320;SDS011;65132;52.088;5.402;2023-10-09T04:43:20;23.42;;;11.02;;
76320;SDS011;65132;52.088;5.402;2023-10-09T04:45:51;22.35;;;10.20;;
76320;SDS011;65132;52.088;5.402;2023-10-09T04:48:18;19.55;;;9.30;;
76320;SDS011;65132;52.088;5.402;2023-10-09T04:50:49;23.63;;;9.68;;
76320;SDS011;65132;52.088;5.402;2023-10-09T04:53:32;23.00;;;11.15;;
76320;SDS011;65132;52.088;5.402;2023-10-09T04:56:01;26.77;;;11.23;;
76320;SDS011;65132;52.088;5.402;2023-10-09T04:58:31;22.63;;;10.60;;
76320;SDS011;65132;52.088;5.402;2023-10-09T05:00:58;19.10;;;10.13;;
76320;SDS011;65132;52.088;5.402;2023-10-09T05:03:26;25.83;;;10.60;;
76320;SDS011;65132;52.088;5.402;2023-10-09T05:05:56;28.52;;;11.15;;
76320;SDS011;65132;52.088;5.402;2023-10-09T05:08:26;23.05;;;9.55;;
76320;SDS011;65132;52.088;5.402;2023-10-09T05:11:01;19.48;;;9.00;;
76320;SDS011;65132;52.088;5.402;2023-10-09T05:13:50;23.85;;;9.90;;
76320;SDS011;65132;52.088;5.402;2023-10-09T05:16:22;24.73;;;10.75;;
76320;SDS011;65132;52.088;5.402;2023-10-09T05:18:53;21.40;;;9.85;;
76320;SDS011;65132;52.088;5.402;2023-10-09T05:21:20;19.33;;;10.02;;
76320;SDS011;65132;52.088;5.402;2023-10-09T05:23:49;19.02;;;10.27;;
76320;SDS011;65132;52.088;5.402;2023-10-09T05:26:21;20.30;;;9.35;;
76320;SDS011;65132;52.088;5.402;2023-10-09T05:28:51;20.23;;;9.10;;
76320;SDS011;65132;52.088;5.402;2023-10-09T05:31:17;19.27;;;8.73;;
76320;SDS011;65132;52.088;5.402;2023-10-09T05:33:46;21.88;;;9.43;;
76320;SDS011;65132;52.088;5.402;2023-10-09T05:36:12;18.40;;;8.27;;
76320;SDS011;65132;52.088;5.402;2023-10-09T05:38:46;18.10;;;8.57;;
76320;SDS011;65132;52.088;5.402;2023-10-09T05:41:14;15.63;;;8.35;;
76320;SDS011;65132;52.088;5.402;2023-10-09T05:43:42;19.05;;;8.63;;
76320;SDS011;65132;52.088;5.402;2023-10-09T05:46:08;20.10;;;7.80;;
76320;SDS011;65132;52.088;5.402;2023-10-09T05:48:40;16.30;;;7.80;;
76320;SDS011;65132;52.088;5.402;2023-10-09T05:51:07;19.40;;;7.82;;
76320;SDS011;65132;52.088;5.402;2023-10-09T05:53:35;15.00;;;7.07;;
76320;SDS011;65132;52.088;5.402;2023-10-09T05:56:03;14.90;;;7.40;;
76320;SDS011;65132;52.088;5.402;2023-10-09T05:58:35;18.83;;;8.10;;
76320;SDS011;65132;52.088;5.402;2023-10-09T06:01:10;14.68;;;6.97;;
76320;SDS011;65132;52.088;5.402;2023-10-09T06:03:39;15.52;;;6.95;;
76320;SDS011;65132;52.088;5.402;2023-10-09T06:06:07;13.23;;;6.38;;
76320;SDS011;65132;52.088;5.402;2023-10-09T06:08:33;17.30;;;7.13;;
76320;SDS011;65132;52.088;5.402;2023-10-09T06:11:20;16.48;;;6.43;;
76320;SDS011;65132;52.088;5.402;2023-10-09T06:13:47;16.13;;;7.13;;
76320;SDS011;65132;52.088;5.402;2023-10-09T06:16:19;15.57;;;6.78;;
76320;SDS011;65132;52.088;5.402;2023-10-09T06:18:49;14.35;;;6.72;;
76320;SDS011;65132;52.088;5.402;2023-10-09T06:21:22;13.70;;;6.82;;
76320;SDS011;65132;52.088;5.402;2023-10-09T06:23:50;16.38;;;6.55;;
76320;SDS011;65132;52.088;5.402;2023-10-09T06:26:22;14.45;;;6.57;;
76320;SDS011;65132;52.088;5.402;2023-10-09T06:28:48;13.23;;;6.38;;
76320;SDS011;65132;52.088;5.402;2023-10-09T06:31:14;17.00;;;7.25;;
76320;SDS011;65132;52.088;5.402;2023-10-09T06:33:41;16.20;;;7.20;;
76320;SDS011;65132;52.088;5.402;2023-10-09T06:36:18;16.38;;;7.10;;
76320;SDS011;65132;52.088;5.402;2023-10-09T06:38:54;15.07;;;6.97;;
76320;SDS011;65132;52.088;5.402;2023-10-09T06:41:20;16.10;;;6.82;;
76320;SDS011;65132;52.088;5.402;2023-10-09T06:43:52;15.77;;;7.03;;
76320;SDS011;65132;52.088;5.402;2023-10-09T06:46:19;18.00;;;6.75;;
76320;SDS011;65132;52.088;5.402;2023-10-09T06:48:51;13.20;;;6.32;;
76320;SDS011;65132;52.088;5.402;2023-10-09T06:51:17;14.80;;;6.88;;
76320;SDS011;65132;52.088;5.402;2023-10-09T06:53:44;15.77;;;6.57;;
76320;SDS011;65132;52.088;5.402;2023-10-09T06:56:11;14.43;;;6.97;;
76320;SDS011;65132;52.088;5.402;2023-10-09T06:58:39;13.68;;;7.30;;
76320;SDS011;65132;52.088;5.402;2023-10-09T07:01:05;13.18;;;5.95;;
76320;SDS011;65132;52.088;5.402;2023-10-09T07:03:34;14.32;;;6.68;;
76320;SDS011;65132;52.088;5.402;2023-10-09T07:06:09;15.95;;;6.97;;
76320;SDS011;65132;52.088;5.402;2023-10-09T07:08:54;14.65;;;7.35;;
76320;SDS011;65132;52.088;5.402;2023-10-09T07:11:21;16.25;;;6.78;;
76320;SDS011;65132;52.088;5.402;2023-10-09T07:13:50;18.58;;;7.63;;
76320;SDS011;65132;52.088;5.402;2023-10-09T07:16:20;15.50;;;6.97;;
76320;SDS011;65132;52.088;5.402;2023-10-09T07:18:47;16.55;;;6.22;;
76320;SDS011;65132;52.088;5.402;2023-10-09T07:21:13;20.77;;;6.90;;
76320;SDS011;65132;52.088;5.402;2023-10-09T07:23:40;13.85;;;6.78;;
76320;SDS011;65132;52.088;5.402;2023-10-09T07:26:08;15.63;;;6.85;;
76320;SDS011;65132;52.088;5.402;2023-10-09T07:28:34;17.77;;;7.03;;
76320;SDS011;65132;52.088;5.402;2023-10-09T07:31:01;13.85;;;7.30;;
76320;SDS011;65132;52.088;5.402;2023-10-09T07:33:27;17.98;;;7.20;;
76320;SDS011;65132;52.088;5.402;2023-10-09T07:35:53;14.63;;;6.93;;
76320;SDS011;65132;52.088;5.402;2023-10-09T07:38:23;15.98;;;7.47;;
76320;SDS011;65132;52.088;5.402;2023-10-09T07:40:51;17.30;;;7.13;;
76320;SDS011;65132;52.088;5.402;2023-10-09T07:43:18;14.52;;;6.90;;
76320;SDS011;65132;52.088;5.402;2023-10-09T07:45:45;16.83;;;7.90;;
76320;SDS011;65132;52.088;5.402;2023-10-09T07:48:20;17.23;;;7.68;;
76320;SDS011;65132;52.088;5.402;2023-10-09T07:50:49;18.42;;;7.47;;
76320;SDS011;65132;52.088;5.402;2023-10-09T07:53:16;15.20;;;7.13;;
76320;SDS011;65132;52.088;5.402;2023-10-09T07:55:45;15.50;;;6.43;;
76320;SDS011;65132;52.088;5.402;2023-10-09T07:58:11;12.20;;;6.57;;
76320;SDS011;65132;52.088;5.402;2023-10-09T08:00:38;17.50;;;7.05;;
76320;SDS011;65132;52.088;5.402;2023-10-09T08:03:04;13.63;;;6.53;;
76320;SDS011;65132;52.088;5.402;2023-10-09T08:05:34;14.38;;;7.28;;
76320;SDS011;65132;52.088;5.402;2023-10-09T08:08:04;13.75;;;6.15;;
76320;SDS011;65132;52.088;5.402;2023-10-09T08:10:44;14.93;;;7.25;;
76320;SDS011;65132;52.088;5.402;2023-10-09T08:13:11;17.60;;;6.82;;
76320;SDS011;65132;52.088;5.402;2023-10-09T08:15:40;12.07;;;6.63;;
76320;SDS011;65132;52.088;5.402;2023-10-09T08:18:07;16.88;;;6.95;;
76320;SDS011;65132;52.088;5.402;2023-10-09T08:20:33;12.77;;;6.63;;
76320;SDS011;65132;52.088;5.402;2023-10-09T08:23:00;14.10;;;6.47;;
76320;SDS011;65132;52.088;5.402;2023-10-09T08:25:32;15.00;;;6.95;;
76320;SDS011;65132;52.088;5.402;2023-10-09T08:27:59;13.73;;;6.50;;
76320;SDS011;65132;52.088;5.402;2023-10-09T08:30:27;15.07;;;6.53;;
76320;SDS011;65132;52.088;5.402;2023-10-09T08:32:54;12.98;;;6.47;;
76320;SDS011;65132;52.088;5.402;2023-10-09T08:35:31;13.90;;;6.40;;
76320;SDS011;65132;52.088;5.402;2023-10-09T08:38:00;13.73;;;5.63;;
76320;SDS011;65132;52.088;5.402;2023-10-09T08:40:31;15.48;;;5.80;;
76320;SDS011;65132;52.088;5.402;2023-10-09T08:43:04;11.70;;;5.15;;
76320;SDS011;65132;52.088;5.402;2023-10-09T08:45:39;13.30;;;5.00;;
76320;SDS011;65132;52.088;5.402;2023-10-09T08:48:14;12.00;;;5.43;;
76320;SDS011;65132;52.088;5.402;2023-10-09T08:50:46;12.43;;;5.47;;
76320;SDS011;65132;52.088;5.402;2023-10-09T08:53:16;12.00;;;5.25;;
76320;SDS011;65132;52.088;5.402;2023-10-09T08:55:43;12.32;;;5.75;;
76320;SDS011;65132;52.088;5.402;2023-10-09T08:58:15;13.45;;;5.32;;
76320;SDS011;65132;52.088;5.402;2023-10-09T09:00:42;13.00;;;5.43;;
76320;SDS011;65132;52.088;5.402;2023-10-09T09:03:09;12.75;;;5.28;;
76320;SDS011;65132;52.088;5.402;2023-10-09T09:05:44;11.52;;;5.05;;
76320;SDS011;65132;52.088;5.402;2023-10-09T09:08:21;10.52;;;5.15;;
76320;SDS011;65132;52.088;5.402;2023-10-09T09:11:10;11.52;;;4.80;;
76320;SDS011;65132;52.088;5.402;2023-10-09T09:13:44;11.20;;;5.25;;
76320;SDS011;65132;52.088;5.402;2023-10-09T09:18:51;11.63;;;4.78;;
76320;SDS011;65132;52.088;5.402;2023-10-09T09:21:19;10.85;;;4.55;;
76320;SDS011;65132;52.088;5.402;2023-10-09T09:23:52;11.13;;;4.38;;
76320;SDS011;65132;52.088;5.402;2023-10-09T09:26:36;10.60;;;4.57;;
76320;SDS011;65132;52.088;5.402;2023-10-09T09:29:04;13.77;;;4.88;;
76320;SDS011;65132;52.088;5.402;2023-10-09T09:31:37;10.95;;;4.00;;
76320;SDS011;65132;52.088;5.402;2023-10-09T09:34:07;10.10;;;4.55;;
76320;SDS011;65132;52.088;5.402;2023-10-09T09:36:34;10.90;;;4.45;;
76320;SDS011;65132;52.088;5.402;2023-10-09T09:39:01;12.48;;;4.45;;
76320;SDS011;65132;52.088;5.402;2023-10-09T09:41:28;13.63;;;4.07;;
76320;SDS011;65132;52.088;5.402;2023-10-09T09:43:57;9.00;;;4.30;;
76320;SDS011;65132;52.088;5.402;2023-10-09T09:46:24;9.90;;;4.35;;
76320;SDS011;65132;52.088;5.402;2023-10-09T09:48:53;8.95;;;4.10;;
76320;SDS011;65132;52.088;5.402;2023-10-09T09:51:22;11.82;;;4.30;;
76320;SDS011;65132;52.088;5.402;2023-10-09T09:53:50;10.10;;;3.85;;
76320;SDS011;65132;52.088;5.402;2023-10-09T09:56:18;10.30;;;3.95;;
76320;SDS011;65132;52.088;5.402;2023-10-09T09:58:49;9.45;;;3.58;;
76320;SDS011;65132;52.088;5.402;2023-10-09T10:01:22;10.70;;;3.70;;
76320;SDS011;65132;52.088;5.402;2023-10-09T10:04:00;10.88;;;3.72;;
76320;SDS011;65132;52.088;5.402;2023-10-09T10:06:31;9.02;;;3.92;;
76320;SDS011;65132;52.088;5.402;2023-10-09T10:09:00;7.53;;;3.53;;
76320;SDS011;65132;52.088;5.402;2023-10-09T10:11:43;10.85;;;3.95;;
76320;SDS011;65132;52.088;5.402;2023-10-09T10:14:14;8.80;;;3.47;;
76320;SDS011;65132;52.088;5.402;2023-10-09T10:19:58;11.93;;;3.72;;
76320;SDS011;65132;52.088;5.402;2023-10-09T10:24:53;9.75;;;3.38;;
76320;SDS011;65132;52.088;5.402;2023-10-09T10:27:25;8.18;;;3.45;;
76320;SDS011;65132;52.088;5.402;2023-10-09T10:32:53;11.32;;;3.67;;
76320;SDS011;65132;52.088;5.402;2023-10-09T10:35:27;7.45;;;3.40;;
76320;SDS011;65132;52.088;5.402;2023-10-09T10:37:53;10.48;;;3.38;;
76320;SDS011;65132;52.088;5.402;2023-10-09T10:40:22;9.77;;;3.28;;
76320;SDS011;65132;52.088;5.402;2023-10-09T10:42:49;9.27;;;4.00;;
76320;SDS011;65132;52.088;5.402;2023-10-09T10:45:17;7.60;;;3.15;;
76320;SDS011;65132;52.088;5.402;2023-10-09T10:47:47;7.45;;;3.60;;
76320;SDS011;65132;52.088;5.402;2023-10-09T10:50:14;7.32;;;3.30;;
76320;SDS011;65132;52.088;5.402;2023-10-09T10:52:46;9.50;;;3.50;;
76320;SDS011;65132;52.088;5.402;2023-10-09T10:55:15;8.55;;;3.53;;
76320;SDS011;65132;52.088;5.402;2023-10-09T10:57:43;10.68;;;3.72;;
76320;SDS011;65132;52.088;5.402;2023-10-09T11:00:11;8.63;;;3.35;;
76320;SDS011;65132;52.088;5.402;2023-10-09T11:02:41;8.63;;;3.03;;
76320;SDS011;65132;52.088;5.402;2023-10-09T11:05:16;12.52;;;4.55;;
76320;SDS011;65132;52.088;5.402;2023-10-09T11:07:43;9.27;;;3.28;;
76320;SDS011;65132;52.088;5.402;2023-10-09T11:10:12;8.50;;;3.92;;
76320;SDS011;65132;52.088;5.402;2023-10-09T11:12:44;7.88;;;3.05;;
76320;SDS011;65132;52.088;5.402;2023-10-09T11:15:15;7.22;;;3.28;;
76320;SDS011;65132;52.088;5.402;2023-10-09T11:17:42;7.10;;;3.20;;
76320;SDS011;65132;52.088;5.402;2023-10-09T11:20:22;9.05;;;3.45;;
76320;SDS011;65132;52.088;5.402;2023-10-09T11:22:50;7.85;;;3.00;;
76320;SDS011;65132;52.088;5.402;2023-10-09T11:25:23;10.10;;;3.35;;
76320;SDS011;65132;52.088;5.402;2023-10-09T11:27:50;7.60;;;3.08;;
76320;SDS011;65132;52.088;5.402;2023-10-09T11:30:17;8.13;;;3.28;;
76320;SDS011;65132;52.088;5.402;2023-10-09T11:33:06;6.25;;;3.17;;
76320;SDS011;65132;52.088;5.402;2023-10-09T11:35:33;9.27;;;3.13;;
76320;SDS011;65132;52.088;5.402;2023-10-09T11:38:02;12.77;;;4.00;;
76320;SDS011;65132;52.088;5.402;2023-10-09T11:40:29;7.38;;;3.15;;
76320;SDS011;65132;52.088;5.402;2023-10-09T11:43:00;7.75;;;2.63;;
76320;SDS011;65132;52.088;5.402;2023-10-09T11:45:28;9.68;;;3.05;;
76320;SDS011;65132;52.088;5.402;2023-10-09T11:48:15;8.88;;;3.65;;
76320;SDS011;65132;52.088;5.402;2023-10-09T11:50:45;8.65;;;2.90;;
76320;SDS011;65132;52.088;5.402;2023-10-09T11:53:20;9.48;;;3.15;;
76320;SDS011;65132;52.088;5.402;2023-10-09T11:55:47;10.20;;;3.03;;
76320;SDS011;65132;52.088;5.402;2023-10-09T11:58:17;6.82;;;2.90;;
76320;SDS011;65132;52.088;5.402;2023-10-09T12:00:52;9.50;;;2.85;;
76320;SDS011;65132;52.088;5.402;2023-10-09T12:03:26;8.48;;;3.33;;
76320;SDS011;65132;52.088;5.402;2023-10-09T12:05:52;10.32;;;3.22;;
76320;SDS011;65132;52.088;5.402;2023-10-09T12:08:19;11.27;;;3.15;;
76320;SDS011;65132;52.088;5.402;2023-10-09T12:10:47;6.80;;;3.00;;
76320;SDS011;65132;52.088;5.402;2023-10-09T12:13:14;7.30;;;3.38;;
76320;SDS011;65132;52.088;5.402;2023-10-09T12:15:41;12.20;;;3.28;;
76320;SDS011;65132;52.088;5.402;2023-10-09T12:18:07;8.48;;;3.22;;
76320;SDS011;65132;52.088;5.402;2023-10-09T12:20:38;10.15;;;2.72;;
76320;SDS011;65132;52.088;5.402;2023-10-09T12:23:05;9.20;;;3.22;;
76320;SDS011;65132;52.088;5.402;2023-10-09T12:25:33;8.00;;;2.88;;
76320;SDS011;65132;52.088;5.402;2023-10-09T12:28:04;7.63;;;3.28;;
76320;SDS011;65132;52.088;5.402;2023-10-09T12:30:38;9.25;;;3.53;;
76320;SDS011;65132;52.088;5.402;2023-10-09T12:33:05;9.82;;;3.83;;
76320;SDS011;65132;52.088;5.402;2023-10-09T12:35:37;8.95;;;3.95;;
76320;SDS011;65132;52.088;5.402;2023-10-09T12:38:04;8.10;;;3.42;;
76320;SDS011;65132;52.088;5.402;2023-10-09T12:40:32;7.65;;;3.47;;
76320;SDS011;65132;52.088;5.402;2023-10-09T12:42:58;7.40;;;3.47;;
76320;SDS011;65132;52.088;5.402;2023-10-09T12:45:25;9.07;;;3.97;;
76320;SDS011;65132;52.088;5.402;2023-10-09T12:47:55;6.80;;;3.15;;
76320;SDS011;65132;52.088;5.402;2023-10-09T12:50:23;6.88;;;3.72;;
76320;SDS011;65132;52.088;5.402;2023-10-09T12:52:57;8.88;;;3.40;;
76320;SDS011;65132;52.088;5.402;2023-10-09T12:55:24;7.47;;;3.55;;
76320;SDS011;65132;52.088;5.402;2023-10-09T12:57:53;11.75;;;4.05;;
76320;SDS011;65132;52.088;5.402;2023-10-09T13:00:22;7.68;;;3.10;;
76320;SDS011;65132;52.088;5.402;2023-10-09T13:02:48;10.05;;;3.50;;
76320;SDS011;65132;52.088;5.402;2023-10-09T13:05:17;10.45;;;3.50;;
76320;SDS011;65132;52.088;5.402;2023-10-09T13:07:46;9.10;;;3.40;;
76320;SDS011;65132;52.088;5.402;2023-10-09T13:10:12;8.90;;;3.47;;
76320;SDS011;65132;52.088;5.402;2023-10-09T13:12:39;8.95;;;3.42;;
76320;SDS011;65132;52.088;5.402;2023-10-09T13:15:10;9.85;;;3.10;;
76320;SDS011;65132;52.088;5.402;2023-10-09T13:17:40;10.23;;;3.20;;
76320;SDS011;65132;52.088;5.402;2023-10-09T13:20:11;10.20;;;3.35;;
76320;SDS011;65132;52.088;5.402;2023-10-09T13:22:38;9.80;;;4.15;;
76320;SDS011;65132;52.088;5.402;2023-10-09T13:25:17;7.32;;;3.80;;
76320;SDS011;65132;52.088;5.402;2023-10-09T13:27:59;8.68;;;3.70;;
76320;SDS011;65132;52.088;5.402;2023-10-09T13:30:31;7.75;;;3.85;;
76320;SDS011;65132;52.088;5.402;2023-10-09T13:32:58;10.40;;;3.95;;
76320;SDS011;65132;52.088;5.402;2023-10-09T13:35:27;9.45;;;3.78;;
76320;SDS011;65132;52.088;5.402;2023-10-09T13:37:56;8.90;;;3.60;;
76320;SDS011;65132;52.088;5.402;2023-10-09T13:40:22;8.70;;;3.67;;
76320;SDS011;65132;52.088;5.402;2023-10-09T13:42:51;9.43;;;3.85;;
76320;SDS011;65132;52.088;5.402;2023-10-09T13:45:21;10.95;;;3.55;;
76320;SDS011;65132;52.088;5.402;2023-10-09T13:47:51;11.48;;;3.85;;
76320;SDS011;65132;52.088;5.402;2023-10-09T13:50:18;11.45;;;4.03;;
76320;SDS011;65132;52.088;5.402;2023-10-09T13:52:47;10.57;;;3.47;;
76320;SDS011;65132;52.088;5.402;2023-10-09T13:55:16;7.97;;;3.20;;
76320;SDS011;65132;52.088;5.402;2023-10-09T13:57:44;10.70;;;4.05;;
76320;SDS011;65132;52.088;5.402;2023-10-09T14:00:15;7.88;;;3.63;;
76320;SDS011;65132;52.088;5.402;2023-10-09T14:02:44;9.25;;;3.65;;
76320;SDS011;65132;52.088;5.402;2023-10-09T14:05:13;9.43;;;3.38;;
76320;SDS011;65132;52.088;5.402;2023-10-09T14:07:47;8.55;;;3.40;;
76320;SDS011;65132;52.088;5.402;2023-10-09T14:10:14;13.43;;;4.63;;
76320;SDS011;65132;52.088;5.402;2023-10-09T14:12:41;11.02;;;4.05;;
76320;SDS011;65132;52.088;5.402;2023-10-09T14:15:12;10.43;;;3.67;;
76320;SDS011;65132;52.088;5.402;2023-10-09T14:17:39;7.60;;;3.45;;
76320;SDS011;65132;52.088;5.402;2023-10-09T14:20:05;10.40;;;3.25;;
76320;SDS011;65132;52.088;5.402;2023-10-09T14:22:35;8.10;;;4.18;;
76320;SDS011;65132;52.088;5.402;2023-10-09T14:25:02;7.18;;;3.25;;
76320;SDS011;65132;52.088;5.402;2023-10-09T14:27:28;8.88;;;3.47;;
76320;SDS011;65132;52.088;5.402;2023-10-09T14:29:55;9.40;;;3.75;;
76320;SDS011;65132;52.088;5.402;2023-10-09T14:32:22;11.52;;;4.13;;
76320;SDS011;65132;52.088;5.402;2023-10-09T14:34:49;10.32;;;3.90;;
76320;SDS011;65132;52.088;5.402;2023-10-09T14:37:17;8.43;;;3.50;;
76320;SDS011;65132;52.088;5.402;2023-10-09T14:39:46;7.38;;;4.28;;
76320;SDS011;65132;52.088;5.402;2023-10-09T14:42:18;8.98;;;3.80;;
76320;SDS011;65132;52.088;5.402;2023-10-09T14:44:46;8.77;;;4.20;;
76320;SDS011;65132;52.088;5.402;2023-10-09T14:47:13;8.48;;;4.45;;
76320;SDS011;65132;52.088;5.402;2023-10-09T14:49:42;10.75;;;3.83;;
76320;SDS011;65132;52.088;5.402;2023-10-09T14:52:10;10.35;;;4.15;;
76320;SDS011;65132;52.088;5.402;2023-10-09T14:54:37;7.05;;;4.13;;
76320;SDS011;65132;52.088;5.402;2023-10-09T14:57:06;10.05;;;4.13;;
76320;SDS011;65132;52.088;5.402;2023-10-09T14:59:33;8.52;;;4.80;;
76320;SDS011;65132;52.088;5.402;2023-10-09T15:02:00;9.23;;;3.92;;
76320;SDS011;65132;52.088;5.402;2023-10-09T15:04:29;8.60;;;3.88;;
76320;SDS011;65132;52.088;5.402;2023-10-09T15:06:56;12.35;;;4.57;;